createdAt,value
2022-12-08T00:01:43.318Z,100478.22
2022-12-08T00:05:04.999Z,100479.00
2022-12-08T00:08:26.977Z,100487.72
2022-12-08T00:11:29.183Z,100472.75
2022-12-08T00:14:35.980Z,100478.31
2022-12-08T00:17:38.141Z,100482.59
2022-12-08T00:20:40.017Z,100481.69
2022-12-08T00:23:42.391Z,100472.94
2022-12-08T00:26:44.667Z,100467.53
2022-12-08T00:29:46.909Z,100471.84
2022-12-08T00:32:49.035Z,100484.97
2022-12-08T00:35:51.245Z,100476.16
2022-12-08T00:38:53.249Z,100477.09
2022-12-08T00:42:13.802Z,100476.75
2022-12-08T00:45:15.861Z,100482.84
2022-12-08T00:48:18.064Z,100483.63
2022-12-08T00:51:19.985Z,100477.75
2022-12-08T00:54:25.681Z,100484.47
2022-12-08T00:57:27.590Z,100476.78
2022-12-08T01:00:29.806Z,100480.84
2022-12-08T01:03:31.734Z,100484.47
2022-12-08T01:06:34.798Z,100482.00
2022-12-08T01:09:36.744Z,100483.03
2022-12-08T01:12:39.497Z,100484.16
2022-12-08T01:15:41.428Z,100475.53
2022-12-08T01:18:43.643Z,100479.22
2022-12-08T01:21:45.542Z,100482.09
2022-12-08T01:24:47.718Z,100475.50
2022-12-08T01:27:51.650Z,100480.19
2022-12-08T01:30:53.861Z,100474.31
2022-12-08T01:33:56.336Z,100481.19
2022-12-08T01:36:58.538Z,100484.72
2022-12-08T01:40:00.485Z,100490.34
2022-12-08T01:43:02.679Z,100486.19
2022-12-08T01:46:05.390Z,100486.16
2022-12-08T01:49:16.509Z,100482.84
2022-12-08T01:52:32.422Z,100476.12
2022-12-08T01:55:36.695Z,100474.63
2022-12-08T01:58:41.591Z,100476.28
2022-12-08T02:01:43.881Z,100469.53
2022-12-08T02:04:46.195Z,100461.81
2022-12-08T02:07:48.440Z,100455.78
2022-12-08T02:10:52.267Z,100453.22
2022-12-08T02:13:55.433Z,100448.13
2022-12-08T02:17:05.665Z,100437.97
2022-12-08T02:20:07.484Z,100452.78
2022-12-08T02:23:36.239Z,100447.66
2022-12-08T02:26:54.648Z,100459.62
2022-12-08T02:30:15.330Z,100455.31
2022-12-08T02:33:26.448Z,100460.91
2022-12-08T02:36:31.781Z,100449.34
2022-12-08T02:39:46.040Z,100449.22
2022-12-08T02:42:55.430Z,100447.19
2022-12-08T02:46:00.781Z,100434.19
2022-12-08T02:49:03.594Z,100431.34
2022-12-08T02:52:05.450Z,100427.81
2022-12-08T02:55:11.525Z,100437.06
2022-12-08T02:58:29.207Z,100426.53
2022-12-08T03:01:34.493Z,100437.25
2022-12-08T03:04:46.459Z,100430.28
2022-12-08T03:08:01.974Z,100424.66
2022-12-08T03:11:21.807Z,100424.34
2022-12-08T03:14:24.607Z,100431.94
2022-12-08T03:17:28.543Z,100426.38
2022-12-08T03:20:32.910Z,100432.44
2022-12-08T03:23:36.600Z,100421.81
2022-12-08T03:26:43.907Z,100423.09
2022-12-08T03:29:47.181Z,100415.97
2022-12-08T03:32:54.806Z,100420.09
2022-12-08T03:35:57.237Z,100426.47
2022-12-08T03:38:59.836Z,100431.25
2022-12-08T03:42:01.716Z,100420.47
2022-12-08T03:45:04.602Z,100420.31
2022-12-08T03:48:06.558Z,100416.19
2022-12-08T03:51:09.001Z,100424.50
2022-12-08T03:54:10.933Z,100419.28
2022-12-08T03:57:13.133Z,100420.91
2022-12-08T04:00:15.856Z,100414.13
2022-12-08T04:03:18.141Z,100414.03
2022-12-08T04:06:20.541Z,100405.97
2022-12-08T04:09:22.771Z,100410.47
2022-12-08T04:12:24.709Z,100410.50
2022-12-08T04:15:26.885Z,100403.59
2022-12-08T04:18:28.829Z,100400.47
2022-12-08T04:21:31.070Z,100399.44
2022-12-08T04:24:32.972Z,100395.19
2022-12-08T04:27:35.208Z,100388.28
2022-12-08T04:30:37.138Z,100392.50
2022-12-08T04:33:39.392Z,100385.31
2022-12-08T04:36:41.350Z,100385.16
2022-12-08T04:39:43.507Z,100387.88
2022-12-08T04:42:45.607Z,100396.81
2022-12-08T04:45:47.954Z,100402.00
2022-12-08T04:48:49.859Z,100399.91
2022-12-08T04:51:52.074Z,100386.66
2022-12-08T04:54:54.003Z,100386.91
2022-12-08T04:57:56.254Z,100388.38
2022-12-08T05:00:58.243Z,100386.41
2022-12-08T05:04:00.539Z,100389.81
2022-12-08T05:07:02.473Z,100391.28
2022-12-08T05:10:05.247Z,100394.81
2022-12-08T05:13:07.849Z,100391.91
2022-12-08T05:16:14.157Z,100396.47
2022-12-08T05:19:16.702Z,100401.66
2022-12-08T05:22:18.911Z,100397.50
2022-12-08T05:25:20.854Z,100401.53
2022-12-08T05:31:45.283Z,100395.47
2022-12-08T05:34:48.917Z,100391.28
2022-12-08T05:37:52.016Z,100391.00
2022-12-08T05:40:54.263Z,100380.53
2022-12-08T05:43:56.222Z,100379.37
2022-12-08T05:46:59.384Z,100371.66
2022-12-08T05:50:01.528Z,100362.81
2022-12-08T05:53:04.308Z,100368.87
2022-12-08T05:56:06.532Z,100381.09
2022-12-08T05:59:08.900Z,100383.75
2022-12-08T06:02:10.998Z,100383.09
2022-12-08T06:05:14.133Z,100376.94
2022-12-08T06:08:16.893Z,100380.50
2022-12-08T06:11:30.247Z,100383.91
2022-12-08T06:14:32.167Z,100384.38
2022-12-08T06:17:34.509Z,100389.97
2022-12-08T06:20:36.540Z,100394.44
2022-12-08T06:23:38.798Z,100400.94
2022-12-08T06:26:41.472Z,100390.88
2022-12-08T06:29:44.244Z,100391.72
2022-12-08T06:32:46.144Z,100392.16
2022-12-08T06:35:48.286Z,100394.81
2022-12-08T06:38:50.596Z,100403.94
2022-12-08T06:42:11.918Z,100404.47
2022-12-08T06:45:15.092Z,100403.50
2022-12-08T06:48:17.772Z,100404.94
2022-12-08T06:51:20.968Z,100409.25
2022-12-08T06:54:23.169Z,100408.62
2022-12-08T06:57:25.690Z,100399.03
2022-12-08T07:00:27.892Z,100404.31
2022-12-08T07:03:29.844Z,100407.25
2022-12-08T07:06:32.145Z,100408.97
2022-12-08T07:09:34.102Z,100410.28
2022-12-08T07:12:36.393Z,100406.59
2022-12-08T07:15:38.393Z,100404.72
2022-12-08T07:18:41.582Z,100408.66
2022-12-08T07:21:43.744Z,100407.59
2022-12-08T07:24:46.253Z,100402.78
2022-12-08T07:27:48.556Z,100401.81
2022-12-08T07:30:50.891Z,100408.50
2022-12-08T07:33:53.166Z,100403.84
2022-12-08T07:36:55.489Z,100406.03
2022-12-08T07:39:57.393Z,100404.88
2022-12-08T07:42:59.832Z,100399.19
2022-12-08T07:46:04.526Z,100398.16
2022-12-08T07:49:06.941Z,100400.56
2022-12-08T07:52:08.882Z,100397.22
2022-12-08T07:55:11.282Z,100395.69
2022-12-08T07:58:13.246Z,100388.81
2022-12-08T08:01:23.033Z,100389.37
2022-12-08T08:04:25.464Z,100388.91
2022-12-08T08:07:28.033Z,100394.44
2022-12-08T08:10:30.727Z,100388.56
2022-12-08T08:13:32.644Z,100397.81
2022-12-08T08:16:38.323Z,100392.53
2022-12-08T08:19:40.928Z,100393.44
2022-12-08T08:22:43.102Z,100387.41
2022-12-08T08:25:45.335Z,100382.25
2022-12-08T08:28:48.209Z,100386.44
2022-12-08T08:31:50.246Z,100376.56
2022-12-08T08:34:52.489Z,100379.03
2022-12-08T08:37:54.357Z,100379.41
2022-12-08T08:40:57.548Z,100377.41
2022-12-08T08:43:59.492Z,100384.78
2022-12-08T08:47:01.865Z,100383.91
2022-12-08T08:50:04.620Z,100378.19
2022-12-08T08:53:07.243Z,100374.12
2022-12-08T08:56:10.148Z,100379.37
2022-12-08T08:59:12.742Z,100385.97
2022-12-08T09:02:18.346Z,100377.41
2022-12-08T09:05:21.363Z,100364.09
2022-12-08T09:08:24.015Z,100364.53
2022-12-08T09:11:27.168Z,100356.66
2022-12-08T09:14:29.290Z,100365.97
2022-12-08T09:17:31.529Z,100377.94
2022-12-08T09:20:36.669Z,100368.12
2022-12-08T09:23:39.408Z,100355.00
2022-12-08T09:26:42.626Z,100350.75
2022-12-08T09:29:44.857Z,100355.69
2022-12-08T09:32:46.775Z,100357.09
2022-12-08T09:35:49.861Z,100361.88
2022-12-08T09:38:53.692Z,100369.16
2022-12-08T09:42:03.997Z,100361.28
2022-12-08T09:45:09.920Z,100351.75
2022-12-08T09:48:15.073Z,100346.50
2022-12-08T09:51:17.317Z,100327.97
2022-12-08T09:54:22.195Z,100322.25
2022-12-08T09:57:24.698Z,100316.53
2022-12-08T10:00:26.936Z,100318.63
2022-12-08T10:03:30.453Z,100316.00
2022-12-08T10:06:43.095Z,100313.22
2022-12-08T10:09:52.476Z,100311.06
2022-12-08T10:13:07.839Z,100316.00
2022-12-08T10:16:33.879Z,100321.87
2022-12-08T10:19:36.267Z,100324.97
2022-12-08T10:22:44.328Z,100323.66
2022-12-08T10:26:06.816Z,100324.28
2022-12-08T10:29:12.395Z,100316.00
2022-12-08T10:32:18.276Z,100312.84
2022-12-08T10:35:21.876Z,100304.78
2022-12-08T10:38:26.848Z,100300.53
2022-12-08T10:41:29.074Z,100292.44
2022-12-08T10:44:31.020Z,100281.94
2022-12-08T10:47:35.722Z,100276.25
2022-12-08T10:50:45.625Z,100274.44
2022-12-08T10:53:47.784Z,100270.03
2022-12-08T10:56:56.574Z,100256.66
2022-12-08T10:59:58.837Z,100252.88
2022-12-08T11:03:02.167Z,100260.16
2022-12-08T11:06:11.898Z,100252.03
2022-12-08T11:09:16.624Z,100252.88
2022-12-08T11:12:22.782Z,100235.91
2022-12-08T11:15:33.661Z,100233.03
2022-12-08T11:18:43.911Z,100234.69
2022-12-08T11:21:56.057Z,100223.22
2022-12-08T11:25:07.400Z,100223.37
2022-12-08T11:28:11.065Z,100220.06
2022-12-08T11:31:41.339Z,100209.87
2022-12-08T11:34:53.265Z,100206.16
2022-12-08T11:38:13.384Z,100188.66
2022-12-08T11:41:21.733Z,100171.50
2022-12-08T11:44:36.201Z,100167.31
2022-12-08T11:47:43.885Z,100159.16
2022-12-08T11:50:53.578Z,100153.66
2022-12-08T11:53:58.509Z,100153.50
2022-12-08T11:57:05.794Z,100163.25
2022-12-08T12:00:11.745Z,100157.88
2022-12-08T12:03:36.489Z,100149.84
2022-12-08T12:06:55.455Z,100148.63
2022-12-08T12:10:10.220Z,100148.63
2022-12-08T12:13:31.898Z,100153.81
2022-12-08T12:17:00.055Z,100157.47
2022-12-08T12:20:05.243Z,100154.50
2022-12-08T12:23:27.658Z,100155.03
2022-12-08T12:26:31.268Z,100160.78
2022-12-08T12:29:38.607Z,100160.75
2022-12-08T12:32:43.365Z,100157.91
2022-12-08T12:35:48.122Z,100151.72
2022-12-08T12:39:01.335Z,100153.84
2022-12-08T12:42:04.544Z,100158.06
2022-12-08T12:45:11.356Z,100158.84
2022-12-08T12:48:19.759Z,100162.72
2022-12-08T12:51:40.219Z,100150.34
2022-12-08T12:54:43.069Z,100145.50
2022-12-08T12:57:56.141Z,100136.78
2022-12-08T13:01:09.920Z,100117.66
2022-12-08T13:04:12.729Z,100122.22
2022-12-08T13:07:22.829Z,100128.31
2022-12-08T13:10:30.470Z,100129.78
2022-12-08T13:13:32.911Z,100129.94
2022-12-08T13:16:37.711Z,100114.19
2022-12-08T13:19:40.789Z,100109.94
2022-12-08T13:23:21.491Z,100115.97
2022-12-08T13:26:24.693Z,100110.81
2022-12-08T13:29:26.927Z,100111.66
2022-12-08T13:32:30.698Z,100116.81
2022-12-08T13:35:41.336Z,100106.53
2022-12-08T13:38:44.777Z,100107.69
2022-12-08T13:42:02.396Z,100123.13
2022-12-08T13:45:22.324Z,100123.03
2022-12-08T13:49:41.924Z,100127.97
2022-12-08T13:56:51.321Z,100120.41
2022-12-08T13:58:51.039Z,100120.31
2022-12-08T14:01:55.332Z,100118.56
2022-12-08T14:08:57.133Z,100114.03
2022-12-08T14:12:07.941Z,100114.34
2022-12-08T14:15:12.783Z,100110.97
2022-12-08T14:18:23.663Z,100102.09
2022-12-08T14:21:32.802Z,100102.16
2022-12-08T14:24:38.546Z,100108.50
2022-12-08T14:27:40.542Z,100106.44
2022-12-08T14:30:42.828Z,100115.16
2022-12-08T14:33:44.985Z,100122.41
2022-12-08T14:36:47.322Z,100127.72
2022-12-08T14:39:49.632Z,100113.75
2022-12-08T14:43:06.268Z,100118.03
2022-12-08T14:46:21.942Z,100113.03
2022-12-08T14:49:39.997Z,100119.34
2022-12-08T14:52:45.286Z,100118.13
2022-12-08T14:55:48.669Z,100112.97
2022-12-08T14:59:02.086Z,100115.28
2022-12-08T15:02:19.317Z,100114.72
2022-12-08T15:05:21.875Z,100108.63
2022-12-08T15:08:24.286Z,100107.94
2022-12-08T15:11:30.189Z,100108.03
2022-12-08T15:14:34.398Z,100099.78
2022-12-08T15:17:42.580Z,100099.78
2022-12-08T15:20:46.902Z,100104.47
2022-12-08T15:23:50.062Z,100103.00
2022-12-08T15:26:52.764Z,100097.69
2022-12-08T15:29:54.708Z,100107.41
2022-12-08T15:32:56.898Z,100122.34
2022-12-08T15:35:58.837Z,100097.00
2022-12-08T15:39:01.238Z,100090.38
2022-12-08T15:42:04.262Z,100091.84
2022-12-08T15:45:06.600Z,100085.34
2022-12-08T15:48:14.335Z,100082.81
2022-12-08T15:51:16.568Z,100082.75
2022-12-08T15:54:18.641Z,100073.88
2022-12-08T15:57:53.528Z,100075.50
2022-12-08T16:00:55.092Z,100080.81
2022-12-08T16:07:27.197Z,100077.13
2022-12-08T16:10:52.231Z,100084.97
2022-12-08T16:14:23.230Z,100087.75
2022-12-08T16:17:15.469Z,100089.06
2022-12-08T16:20:18.152Z,100092.59
2022-12-08T16:23:41.677Z,100082.59
2022-12-08T16:27:58.173Z,100090.59
2022-12-08T16:30:06.174Z,100065.78
2022-12-08T16:33:09.437Z,100057.72
2022-12-08T16:36:11.703Z,100057.16
2022-12-08T16:39:14.590Z,100059.31
2022-12-08T16:42:37.505Z,100045.59
2022-12-08T16:45:45.074Z,100067.69
2022-12-08T16:48:47.755Z,100062.69
2022-12-08T16:51:49.986Z,100071.72
2022-12-08T16:54:52.675Z,100070.69
2022-12-08T16:57:55.155Z,100066.91
2022-12-08T17:00:57.927Z,100075.19
2022-12-08T17:04:31.062Z,100084.50
2022-12-08T17:07:22.422Z,100082.38
2022-12-08T17:10:26.821Z,100086.53
2022-12-08T17:13:29.542Z,100080.81
2022-12-08T17:16:31.678Z,100073.19
2022-12-08T17:19:34.709Z,100074.13
2022-12-08T17:22:36.887Z,100078.97
2022-12-08T17:25:41.599Z,100083.12
2022-12-08T17:29:00.167Z,100086.59
2022-12-08T17:32:03.723Z,100095.69
2022-12-08T17:35:06.790Z,100101.09
2022-12-08T17:38:09.492Z,100098.47
2022-12-08T17:41:11.407Z,100070.44
2022-12-08T17:44:14.924Z,100050.75
2022-12-08T17:47:16.930Z,100052.53
2022-12-08T17:50:19.108Z,100062.47
2022-12-08T17:53:21.121Z,100062.31
2022-12-08T17:56:23.431Z,100058.25
2022-12-08T17:59:26.154Z,100060.31
2022-12-08T18:02:30.259Z,100065.78
2022-12-08T18:05:35.219Z,100062.31
2022-12-08T18:08:37.234Z,100063.56
2022-12-08T18:11:39.550Z,100061.16
2022-12-08T18:14:41.815Z,100054.84
2022-12-08T18:17:44.145Z,100054.91
2022-12-08T18:20:46.589Z,100053.69
2022-12-08T18:23:48.882Z,100056.63
2022-12-08T18:26:52.328Z,100060.63
2022-12-08T18:29:54.832Z,100054.37
2022-12-08T18:32:57.561Z,100058.06
2022-12-08T18:35:59.940Z,100056.91
2022-12-08T18:39:07.158Z,100066.31
2022-12-08T18:42:24.692Z,100063.16
2022-12-08T18:45:26.977Z,100064.78
2022-12-08T18:48:29.281Z,100073.66
2022-12-08T18:51:31.206Z,100062.56
2022-12-08T18:54:58.236Z,100071.94
2022-12-08T18:57:55.516Z,100073.34
2022-12-08T19:00:58.180Z,100068.63
2022-12-08T19:07:23.642Z,100061.47
2022-12-08T19:10:25.680Z,100065.94
2022-12-08T19:13:28.301Z,100052.44
2022-12-08T19:16:30.637Z,100055.06
2022-12-08T19:19:33.268Z,100063.56
2022-12-08T19:22:35.407Z,100069.62
2022-12-08T19:25:37.626Z,100066.31
2022-12-08T19:28:41.059Z,100063.69
2022-12-08T19:31:43.333Z,100065.78
2022-12-08T19:34:45.250Z,100072.78
2022-12-08T19:37:47.478Z,100068.75
2022-12-08T19:41:07.837Z,100061.72
2022-12-08T19:44:16.835Z,100064.50
2022-12-08T19:47:23.187Z,100066.50
2022-12-08T19:50:37.833Z,100062.09
2022-12-08T19:53:47.181Z,100064.50
2022-12-08T19:56:50.070Z,100064.66
2022-12-08T19:59:56.294Z,100056.72
2022-12-08T20:02:59.852Z,100049.00
2022-12-08T20:06:02.130Z,100050.84
2022-12-08T20:09:04.060Z,100048.78
2022-12-08T20:12:06.301Z,100048.84
2022-12-08T20:15:10.127Z,100048.38
2022-12-08T20:18:13.145Z,100049.53
2022-12-08T20:21:15.140Z,100044.22
2022-12-08T20:24:17.419Z,100034.13
2022-12-08T20:27:19.349Z,100037.28
2022-12-08T20:30:21.606Z,100041.25
2022-12-08T20:33:23.530Z,100039.50
2022-12-08T20:36:25.750Z,100032.56
2022-12-08T20:39:27.827Z,100033.41
2022-12-08T20:42:30.120Z,100037.63
2022-12-08T20:45:32.070Z,100043.34
2022-12-08T20:48:34.557Z,100040.56
2022-12-08T20:51:36.725Z,100044.97
2022-12-08T20:54:39.212Z,100060.75
2022-12-08T20:57:41.279Z,100065.59
2022-12-08T21:00:43.770Z,100066.44
2022-12-08T21:03:46.092Z,100070.31
2022-12-08T21:06:49.343Z,100069.75
2022-12-08T21:09:52.646Z,100066.91
2022-12-08T21:12:55.058Z,100061.31
2022-12-08T21:15:57.206Z,100061.37
2022-12-08T21:19:00.908Z,100067.25
2022-12-08T21:22:03.111Z,100069.09
2022-12-08T21:25:06.004Z,100070.87
2022-12-08T21:28:08.992Z,100062.47
2022-12-08T21:31:12.656Z,100052.53
2022-12-08T21:34:14.986Z,100060.31
2022-12-08T21:37:17.501Z,100045.53
2022-12-08T21:40:19.528Z,100036.97
2022-12-08T21:43:21.712Z,100032.25
2022-12-08T21:46:23.830Z,100026.87
2022-12-08T21:49:26.240Z,100029.34
2022-12-08T21:52:29.092Z,100028.09
2022-12-08T21:55:31.488Z,100031.84
2022-12-08T21:58:33.776Z,100036.94
2022-12-08T22:01:36.375Z,100046.41
2022-12-08T22:04:39.204Z,100041.81
2022-12-08T22:07:41.411Z,100049.88
2022-12-08T22:10:46.935Z,100047.19
2022-12-08T22:13:48.989Z,100046.12
2022-12-08T22:16:51.589Z,100043.56
2022-12-08T22:19:53.775Z,100033.03
2022-12-08T22:22:56.074Z,100032.47
2022-12-08T22:25:58.919Z,100027.16
2022-12-08T22:29:01.340Z,100035.88
2022-12-08T22:32:03.585Z,100050.28
2022-12-08T22:35:05.988Z,100053.47
2022-12-08T22:38:08.025Z,100050.66
2022-12-08T22:41:10.551Z,100047.97
2022-12-08T22:44:14.014Z,100056.88
2022-12-08T22:47:16.472Z,100034.66
2022-12-08T22:50:18.488Z,100046.56
2022-12-08T22:53:20.728Z,100056.16
2022-12-08T22:56:22.775Z,100050.09
2022-12-08T22:59:25.048Z,100047.13
2022-12-08T23:02:27.029Z,100040.75
2022-12-08T23:05:31.817Z,100037.06
2022-12-08T23:08:33.860Z,100038.47
2022-12-08T23:11:36.310Z,100047.53
2022-12-08T23:14:38.221Z,100044.09
2022-12-08T23:17:40.643Z,100047.25
2022-12-08T23:20:42.787Z,100043.56
2022-12-08T23:23:45.187Z,100048.62
2022-12-08T23:26:47.091Z,100042.25
2022-12-08T23:29:49.423Z,100033.41
2022-12-08T23:32:54.572Z,100033.19
2022-12-08T23:35:57.638Z,100038.69
2022-12-08T23:38:59.742Z,100030.37
2022-12-08T23:42:02.030Z,100042.09
2022-12-08T23:45:04.562Z,100047.97
2022-12-08T23:48:06.889Z,100039.69
2022-12-08T23:51:09.342Z,100033.19
2022-12-08T23:54:11.669Z,100029.56
2022-12-08T23:57:13.625Z,100029.66
